Time;durP1;ratioP1;P1;durP2;ratioP2;P2;SDS_P1;SDS_P2;PMS_P1;PMS_P2;Temp;Humidity;BMP_temperature;BMP_pressure;BME280_temperature;BME280_humidity;BME280_pressure;Samples;Min_cycle;Max_cycle;Signal;HPM_P1;HPM_P2
2022/04/14 00:00:14;;;;;;;12.60;6.82;;;11.60;99.90;;;;;;5075329;28;20111;-74
2022/04/14 00:02:39;;;;;;;13.95;6.72;;;11.50;99.90;;;;;;5075216;28;20043;-74
2022/04/14 00:05:06;;;;;;;8.38;5.93;;;11.50;99.90;;;;;;5075487;28;20036;-74
2022/04/14 00:07:32;;;;;;;11.07;6.60;;;11.50;99.90;;;;;;5075255;28;20040;-74
2022/04/14 00:09:57;;;;;;;11.05;6.93;;;11.40;99.90;;;;;;5075182;28;20054;-74
2022/04/14 00:12:23;;;;;;;12.70;7.22;;;11.40;99.90;;;;;;5075153;28;20071;-74
2022/04/14 00:14:48;;;;;;;10.95;6.70;;;11.40;99.90;;;;;;5076029;28;20120;-74
2022/04/14 00:17:14;;;;;;;13.85;6.70;;;11.40;99.90;;;;;;5060574;28;20189;-74
2022/04/14 00:19:40;;;;;;;12.50;6.70;;;11.40;99.90;;;;;;5079557;28;20036;-74
2022/04/14 00:22:06;;;;;;;12.63;6.95;;;11.40;99.90;;;;;;5079141;28;20043;-74
2022/04/14 00:24:32;;;;;;;12.73;7.03;;;11.40;99.90;;;;;;5079358;28;20036;-74
2022/04/14 00:26:58;;;;;;;12.32;7.43;;;11.40;99.90;;;;;;5079161;28;20496;-74
2022/04/14 00:29:23;;;;;;;12.68;7.00;;;11.30;99.90;;;;;;5062255;28;20056;-74
2022/04/14 00:31:49;;;;;;;15.70;7.88;;;11.40;99.90;;;;;;5062272;28;20040;-74
2022/04/14 00:34:14;;;;;;;11.52;7.35;;;11.40;99.90;;;;;;5062236;28;20124;-74
2022/04/14 00:36:40;;;;;;;12.75;7.68;;;11.40;99.90;;;;;;5079070;28;20040;-74
2022/04/14 00:39:06;;;;;;;13.75;8.00;;;11.40;99.90;;;;;;5079080;28;20515;-74
2022/04/14 00:41:31;;;;;;;16.27;7.60;;;11.40;99.90;;;;;;5078772;28;20488;-74
2022/04/14 00:43:57;;;;;;;11.82;7.47;;;11.40;99.90;;;;;;5078900;28;20024;-75
2022/04/14 00:46:22;;;;;;;15.38;7.50;;;11.30;99.90;;;;;;5078974;28;20450;-74
2022/04/14 00:48:49;;;;;;;14.95;8.30;;;11.30;99.90;;;;;;5078538;28;20047;-74
2022/04/14 00:51:15;;;;;;;13.80;7.43;;;11.30;99.90;;;;;;5078603;28;20076;-74
2022/04/14 00:53:41;;;;;;;13.45;7.72;;;11.20;99.90;;;;;;5078597;28;20040;-74
2022/04/14 00:56:07;;;;;;;11.00;7.57;;;11.20;99.90;;;;;;5078443;28;20044;-74
2022/04/14 00:58:36;;;;;;;12.93;7.63;;;11.20;99.90;;;;;;5078388;28;20040;-74
2022/04/14 01:01:05;;;;;;;13.25;8.40;;;11.20;99.90;;;;;;5078378;28;20036;-74
2022/04/14 01:03:32;;;;;;;11.00;7.22;;;11.20;99.90;;;;;;5078370;28;20119;-74
2022/04/14 01:05:59;;;;;;;14.10;7.78;;;11.20;99.90;;;;;;5061737;28;20565;-74
2022/04/14 01:08:26;;;;;;;16.83;8.38;;;11.20;99.90;;;;;;5078123;28;20415;-74
2022/04/14 01:10:53;;;;;;;12.15;7.40;;;11.20;99.90;;;;;;5078250;28;20044;-74
2022/04/14 01:13:19;;;;;;;15.02;8.15;;;11.20;99.90;;;;;;5078198;28;20036;-74
2022/04/14 01:15:45;;;;;;;14.55;8.00;;;11.20;99.90;;;;;;5078152;28;20039;-74
2022/04/14 01:18:12;;;;;;;13.90;7.93;;;11.20;99.90;;;;;;5078258;28;20396;-74
2022/04/14 01:20:41;;;;;;;11.07;7.72;;;11.20;99.90;;;;;;5061479;28;20038;-74
2022/04/14 01:23:08;;;;;;;14.15;8.18;;;11.20;99.90;;;;;;5077889;28;20036;-74
2022/04/14 01:25:35;;;;;;;12.98;8.10;;;11.20;99.90;;;;;;5078287;28;20141;-74
2022/04/14 01:28:02;;;;;;;14.75;8.27;;;11.10;99.90;;;;;;5076958;28;20523;-74
2022/04/14 01:30:28;;;;;;;12.50;8.50;;;11.10;99.90;;;;;;5078280;28;20036;-74
2022/04/14 01:32:53;;;;;;;13.50;9.07;;;11.10;99.90;;;;;;5061481;28;20040;-74
2022/04/14 01:35:19;;;;;;;14.73;9.13;;;11.00;99.90;;;;;;5061116;28;20408;-74
2022/04/14 01:37:44;;;;;;;15.38;9.57;;;11.00;99.90;;;;;;5077703;28;20044;-74
2022/04/14 01:40:10;;;;;;;13.68;8.60;;;11.00;99.90;;;;;;5060925;28;20043;-74
2022/04/14 01:42:36;;;;;;;16.95;9.57;;;11.00;99.90;;;;;;5060914;28;20050;-74
2022/04/14 01:45:03;;;;;;;14.63;9.10;;;11.00;99.90;;;;;;5060943;28;20028;-74
2022/04/14 01:47:28;;;;;;;13.05;9.20;;;10.90;99.90;;;;;;5077733;28;20051;-74
2022/04/14 01:49:54;;;;;;;15.07;8.77;;;11.00;99.90;;;;;;5077495;28;20106;-74
2022/04/14 01:52:19;;;;;;;14.90;8.95;;;10.90;99.90;;;;;;5077520;28;20036;-74
2022/04/14 01:54:45;;;;;;;14.75;8.90;;;10.90;99.90;;;;;;5077680;28;20109;-74
2022/04/14 01:57:10;;;;;;;13.98;9.27;;;10.90;99.90;;;;;;5077464;28;20519;-74
2022/04/14 01:59:36;;;;;;;11.73;9.00;;;10.80;99.90;;;;;;5077237;28;20036;-74
2022/04/14 02:02:03;;;;;;;15.52;9.90;;;10.80;99.90;;;;;;5060914;28;20036;-74
2022/04/14 02:04:29;;;;;;;14.88;9.20;;;10.80;99.90;;;;;;5060544;28;20032;-74
2022/04/14 02:06:54;;;;;;;16.45;11.25;;;10.80;99.90;;;;;;5077270;28;20036;-74
2022/04/14 02:09:20;;;;;;;19.08;10.95;;;10.80;99.90;;;;;;5060473;28;20043;-74
2022/04/14 02:11:45;;;;;;;18.58;11.35;;;10.90;99.90;;;;;;5060499;28;20066;-74
2022/04/14 02:14:11;;;;;;;16.75;12.07;;;10.90;99.90;;;;;;5077071;28;20047;-74
2022/04/14 02:16:36;;;;;;;14.30;10.32;;;11.00;99.90;;;;;;5060573;28;20123;-74
2022/04/14 02:19:02;;;;;;;14.18;10.02;;;11.00;99.90;;;;;;5076957;28;20036;-74
2022/04/14 02:21:28;;;;;;;17.88;12.10;;;11.00;99.90;;;;;;5076971;28;20080;-74
2022/04/14 02:23:53;;;;;;;16.60;11.20;;;11.00;99.90;;;;;;5076968;28;20032;-75
2022/04/14 02:26:19;;;;;;;21.40;12.73;;;11.00;99.90;;;;;;5076861;28;20036;-74
2022/04/14 02:28:45;;;;;;;18.10;12.18;;;11.00;99.90;;;;;;5076761;28;20075;-74
2022/04/14 02:31:11;;;;;;;17.50;12.65;;;11.00;99.90;;;;;;5076832;28;20133;-75
2022/04/14 02:33:39;;;;;;;16.85;12.43;;;11.00;99.90;;;;;;5077216;28;20082;-75
2022/04/14 02:36:05;;;;;;;17.35;13.35;;;10.90;99.90;;;;;;5076525;28;20044;-74
2022/04/14 02:38:31;;;;;;;18.77;14.07;;;11.00;99.90;;;;;;5076445;28;20062;-74
2022/04/14 02:40:56;;;;;;;20.30;13.88;;;11.00;99.90;;;;;;5076168;28;20036;-74
2022/04/14 02:43:22;;;;;;;18.33;14.23;;;10.90;99.90;;;;;;5076576;28;20066;-74
2022/04/14 02:45:47;;;;;;;17.27;14.23;;;10.90;99.90;;;;;;5076419;28;20395;-74
2022/04/14 02:48:13;;;;;;;21.20;14.38;;;10.90;99.90;;;;;;5059598;28;20036;-74
2022/04/14 02:50:43;;;;;;;20.13;13.48;;;10.80;99.90;;;;;;5076622;28;20048;-74
2022/04/14 02:53:09;;;;;;;15.48;13.00;;;10.90;99.90;;;;;;5076233;28;20085;-74
2022/04/14 02:55:35;;;;;;;20.35;14.05;;;10.90;99.90;;;;;;5076158;28;20036;-74
2022/04/14 02:58:00;;;;;;;18.30;13.60;;;10.80;99.90;;;;;;5076435;28;20047;-75
2022/04/14 03:00:26;;;;;;;16.58;12.15;;;10.80;99.90;;;;;;5076336;28;20040;-74
2022/04/14 03:02:51;;;;;;;16.15;13.27;;;10.80;99.90;;;;;;5076112;28;20032;-74
2022/04/14 03:05:17;;;;;;;19.23;13.38;;;10.90;99.90;;;;;;5059634;28;20089;-74
2022/04/14 03:07:43;;;;;;;17.55;13.52;;;10.90;99.90;;;;;;5075966;28;20514;-74
2022/04/14 03:10:08;;;;;;;19.25;13.60;;;10.90;99.90;;;;;;5075774;28;20089;-74
2022/04/14 03:12:46;;;;;;;15.27;11.50;;;10.80;99.90;;;;;;5076134;28;20044;-74
2022/04/14 03:15:12;;;;;;;16.05;12.43;;;10.80;99.90;;;;;;5076072;28;20039;-74
2022/04/14 03:17:37;;;;;;;15.13;12.45;;;10.80;99.90;;;;;;5075678;28;20504;-74
2022/04/14 03:20:04;;;;;;;20.52;15.07;;;10.70;99.90;;;;;;5075644;28;20039;-74
2022/04/14 03:22:33;;;;;;;16.70;13.63;;;10.70;99.90;;;;;;5075906;28;20130;-74
2022/04/14 03:25:01;;;;;;;15.73;13.27;;;10.70;99.90;;;;;;5058940;28;20086;-74
2022/04/14 03:27:27;;;;;;;16.77;14.02;;;10.70;99.90;;;;;;5075974;28;20136;-74
2022/04/14 03:29:53;;;;;;;19.17;14.38;;;10.60;99.90;;;;;;5075716;28;20090;-74
2022/04/14 03:32:18;;;;;;;17.38;14.20;;;10.60;99.90;;;;;;5075801;28;20057;-74
2022/04/14 03:34:44;;;;;;;17.48;12.80;;;10.60;99.90;;;;;;5075452;28;20496;-74
2022/04/14 03:37:09;;;;;;;21.17;15.68;;;10.60;99.90;;;;;;5075384;28;20048;-74
2022/04/14 03:39:35;;;;;;;17.38;14.43;;;10.50;99.90;;;;;;5059022;28;20043;-74
2022/04/14 03:42:00;;;;;;;20.38;16.25;;;10.50;99.90;;;;;;5075401;28;20040;-74
2022/04/14 03:44:26;;;;;;;15.52;13.80;;;10.50;99.90;;;;;;5058606;28;20032;-74
2022/04/14 03:46:51;;;;;;;18.20;14.75;;;10.50;99.90;;;;;;5075316;28;20048;-74
2022/04/14 03:49:17;;;;;;;19.00;15.73;;;10.40;99.90;;;;;;5075273;28;20046;-74
2022/04/14 03:51:42;;;;;;;20.95;16.75;;;10.40;99.90;;;;;;5074975;28;20044;-74
2022/04/14 03:54:08;;;;;;;20.42;15.82;;;10.30;99.90;;;;;;5075312;28;20411;-74
2022/04/14 03:56:33;;;;;;;22.65;16.52;;;10.40;99.90;;;;;;5075343;28;20484;-74
2022/04/14 03:59:00;;;;;;;22.42;16.60;;;10.40;99.90;;;;;;5075137;28;20385;-74
2022/04/14 04:01:26;;;;;;;20.90;15.98;;;10.40;99.90;;;;;;5075464;28;20044;-74
2022/04/14 04:03:51;;;;;;;21.23;17.17;;;10.40;99.90;;;;;;5075181;28;20451;-74
2022/04/14 04:06:17;;;;;;;17.38;15.48;;;10.30;99.90;;;;;;5075197;28;20044;-74
2022/04/14 04:08:42;;;;;;;16.60;14.85;;;10.30;99.90;;;;;;5075054;28;20059;-74
2022/04/14 04:11:08;;;;;;;21.58;17.30;;;10.20;99.90;;;;;;5075082;28;20047;-74
2022/04/14 04:13:34;;;;;;;20.13;15.57;;;10.30;99.90;;;;;;5075094;28;20131;-74
2022/04/14 04:15:59;;;;;;;19.80;16.63;;;10.20;99.90;;;;;;5058282;28;20405;-74
2022/04/14 04:18:25;;;;;;;20.45;14.80;;;10.20;99.90;;;;;;5075000;28;20032;-74
2022/04/14 04:20:50;;;;;;;23.83;18.80;;;10.10;99.90;;;;;;5075001;28;20132;-74
2022/04/14 04:23:16;;;;;;;25.98;19.92;;;10.10;99.90;;;;;;5074988;28;20075;-74
2022/04/14 04:25:41;;;;;;;22.58;18.67;;;10.10;99.90;;;;;;5074950;28;20039;-74
2022/04/14 04:28:07;;;;;;;23.02;17.40;;;10.00;99.90;;;;;;5074882;28;20039;-74
2022/04/14 04:30:33;;;;;;;23.45;19.70;;;10.00;99.90;;;;;;5075185;28;20039;-74
2022/04/14 04:32:58;;;;;;;26.83;18.90;;;10.00;99.90;;;;;;5075183;28;20512;-74
2022/04/14 04:35:24;;;;;;;23.05;17.65;;;10.00;99.90;;;;;;5074917;28;20500;-74
2022/04/14 04:37:49;;;;;;;21.38;16.83;;;10.00;99.90;;;;;;5057979;28;20040;-74
2022/04/14 04:40:18;;;;;;;22.90;17.60;;;9.90;99.90;;;;;;5058433;28;20370;-74
2022/04/14 04:42:44;;;;;;;26.25;19.63;;;9.90;99.90;;;;;;5074827;28;20040;-74
2022/04/14 04:45:09;;;;;;;25.13;19.05;;;9.90;99.90;;;;;;5057885;28;20043;-74
2022/04/14 04:47:35;;;;;;;26.83;20.02;;;9.90;99.90;;;;;;5074775;28;20066;-74
2022/04/14 04:50:00;;;;;;;30.20;21.10;;;9.90;99.90;;;;;;5074626;28;20044;-74
2022/04/14 04:52:26;;;;;;;24.67;20.55;;;9.80;99.90;;;;;;5074760;28;20181;-75
2022/04/14 04:54:51;;;;;;;31.20;20.92;;;9.80;99.90;;;;;;5074694;28;20085;-74
2022/04/14 04:57:17;;;;;;;26.08;20.90;;;9.70;99.90;;;;;;5074618;28;20052;-75
2022/04/14 04:59:43;;;;;;;30.00;21.88;;;9.70;99.90;;;;;;5074610;28;20036;-74
2022/04/14 05:02:08;;;;;;;29.00;22.10;;;9.60;99.90;;;;;;5074921;28;20056;-75
2022/04/14 05:04:34;;;;;;;30.58;22.52;;;9.60;99.90;;;;;;5061566;28;20109;-75
2022/04/14 05:07:00;;;;;;;28.55;21.48;;;9.60;99.90;;;;;;5078236;28;20036;-74
2022/04/14 05:09:25;;;;;;;27.38;20.30;;;9.60;99.90;;;;;;5078154;28;20452;-74
2022/04/14 05:11:51;;;;;;;27.52;22.13;;;9.60;99.90;;;;;;5078205;28;20047;-75
2022/04/14 05:14:16;;;;;;;26.13;21.08;;;9.60;99.90;;;;;;5078165;28;20044;-74
2022/04/14 05:16:42;;;;;;;23.83;20.33;;;9.60;99.90;;;;;;5078013;28;20032;-74
2022/04/14 05:19:07;;;;;;;24.42;21.17;;;9.60;99.90;;;;;;5078050;28;20032;-74
2022/04/14 05:21:33;;;;;;;29.95;23.65;;;9.60;99.90;;;;;;5078094;28;20081;-75
2022/04/14 05:23:58;;;;;;;30.23;22.75;;;9.60;99.90;;;;;;5077991;28;20032;-74
2022/04/14 05:26:24;;;;;;;29.27;22.30;;;9.60;99.90;;;;;;5077923;28;20047;-75
2022/04/14 05:28:49;;;;;;;34.13;23.83;;;9.60;99.90;;;;;;5077795;28;20047;-74
2022/04/14 05:31:15;;;;;;;27.60;22.50;;;9.70;99.90;;;;;;5077831;28;20044;-74
2022/04/14 05:33:41;;;;;;;30.10;23.15;;;9.60;99.90;;;;;;5077816;28;20040;-74
2022/04/14 05:36:06;;;;;;;29.65;24.17;;;9.70;99.90;;;;;;5077682;28;20048;-74
2022/04/14 05:38:32;;;;;;;34.72;25.38;;;9.70;99.90;;;;;;5077683;28;20040;-74
2022/04/14 05:40:57;;;;;;;37.13;28.30;;;9.70;99.90;;;;;;5077945;28;20044;-74
2022/04/14 05:43:28;;;;;;;36.88;25.85;;;9.70;99.90;;;;;;5077509;28;20488;-74
2022/04/14 05:45:54;;;;;;;37.85;27.83;;;9.70;99.90;;;;;;5077593;28;20043;-74
2022/04/14 05:48:20;;;;;;;36.42;28.55;;;9.70;99.90;;;;;;5077716;28;20115;-74
2022/04/14 05:50:48;;;;;;;38.05;28.63;;;9.80;99.90;;;;;;5077486;28;20207;-74
2022/04/14 05:53:13;;;;;;;36.28;27.58;;;9.80;99.90;;;;;;5060716;28;20559;-74
2022/04/14 05:55:41;;;;;;;34.53;28.85;;;9.90;99.90;;;;;;5077414;28;20185;-74
2022/04/14 05:58:07;;;;;;;40.85;29.85;;;9.90;99.90;;;;;;5060451;28;20044;-74
2022/04/14 06:00:34;;;;;;;35.45;27.00;;;10.00;99.90;;;;;;5077312;28;20028;-74
2022/04/14 06:03:00;;;;;;;37.17;28.05;;;10.00;99.90;;;;;;5077369;28;20036;-74
2022/04/14 06:05:27;;;;;;;37.55;27.73;;;10.10;99.90;;;;;;5060927;28;20366;-75
2022/04/14 06:07:53;;;;;;;35.03;26.70;;;10.10;99.90;;;;;;5077158;28;20054;-73
2022/04/14 06:10:19;;;;;;;39.47;29.90;;;10.20;99.90;;;;;;5077353;28;20032;-74
2022/04/14 06:12:45;;;;;;;44.47;31.35;;;10.20;99.90;;;;;;5060546;28;20044;-75
2022/04/14 06:15:10;;;;;;;42.00;30.45;;;10.30;99.90;;;;;;5076722;28;20051;-75
2022/04/14 06:17:36;;;;;;;40.17;30.83;;;10.40;99.90;;;;;;5077341;28;20043;-74
2022/04/14 06:20:03;;;;;;;44.30;33.60;;;10.40;99.90;;;;;;5077397;28;20493;-74
2022/04/14 06:22:29;;;;;;;49.65;32.22;;;10.50;99.90;;;;;;5077504;28;20508;-75
2022/04/14 06:24:58;;;;;;;48.92;33.03;;;10.50;99.90;;;;;;5076822;28;20040;-75
2022/04/14 06:27:23;;;;;;;47.97;32.92;;;10.60;99.90;;;;;;5076764;28;20048;-74
2022/04/14 06:29:49;;;;;;;48.72;34.15;;;10.60;99.90;;;;;;5077187;28;20040;-74
2022/04/14 06:32:14;;;;;;;47.50;33.35;;;10.70;99.90;;;;;;5060053;28;20040;-74
2022/04/14 06:34:40;;;;;;;51.45;33.00;;;10.70;99.90;;;;;;5076605;28;20137;-74
2022/04/14 06:37:05;;;;;;;45.58;32.97;;;10.80;99.90;;;;;;5076390;28;20063;-74
2022/04/14 06:39:31;;;;;;;52.28;35.58;;;10.90;99.90;;;;;;5076501;28;20036;-74
2022/04/14 06:41:57;;;;;;;48.88;32.78;;;10.90;99.90;;;;;;5076511;28;20043;-74
2022/04/14 06:44:22;;;;;;;50.10;32.45;;;11.00;99.90;;;;;;5076656;28;20432;-75
2022/04/14 06:46:49;;;;;;;46.92;33.17;;;11.00;99.90;;;;;;5077244;28;20048;-74
2022/04/14 06:49:15;;;;;;;42.30;30.83;;;11.10;99.90;;;;;;5077005;28;20051;-74
2022/04/14 06:51:41;;;;;;;49.28;34.00;;;11.10;99.90;;;;;;5076934;28;20040;-74
2022/04/14 06:54:06;;;;;;;42.72;31.50;;;11.20;99.90;;;;;;5076402;28;20389;-73
2022/04/14 06:56:32;;;;;;;43.97;32.53;;;11.20;99.90;;;;;;5059953;28;20040;-74
2022/04/14 06:58:58;;;;;;;42.85;31.23;;;11.30;99.90;;;;;;5076093;28;20462;-74
2022/04/14 07:01:23;;;;;;;42.70;29.27;;;11.30;99.90;;;;;;5076073;28;20048;-74
2022/04/14 07:03:49;;;;;;;42.30;30.20;;;11.40;99.90;;;;;;5076303;28;20089;-74
2022/04/14 07:06:15;;;;;;;39.53;29.17;;;11.50;99.90;;;;;;5076028;28;20048;-74
2022/04/14 07:08:40;;;;;;;36.45;28.55;;;11.60;99.90;;;;;;5075806;28;20043;-73
2022/04/14 07:11:06;;;;;;;42.80;28.30;;;11.60;99.90;;;;;;5075907;28;20048;-73
2022/04/14 07:13:32;;;;;;;35.92;27.58;;;11.80;99.90;;;;;;5075942;28;20043;-74
2022/04/14 07:15:59;;;;;;;41.22;28.58;;;11.80;99.90;;;;;;5075742;28;20044;-73
2022/04/14 07:18:26;;;;;;;34.00;24.27;;;11.90;99.90;;;;;;5059139;28;20035;-74
2022/04/14 07:20:51;;;;;;;33.53;24.70;;;12.00;99.90;;;;;;5075719;28;20492;-74
2022/04/14 07:23:17;;;;;;;36.50;24.58;;;12.10;99.90;;;;;;5075822;28;20138;-73
2022/04/14 07:25:43;;;;;;;23.77;19.67;;;12.20;99.90;;;;;;5075046;28;20036;-74
2022/04/14 07:28:08;;;;;;;26.60;18.95;;;12.30;99.90;;;;;;5075273;28;20126;-74
2022/04/14 07:30:34;;;;;;;29.58;20.08;;;12.30;99.90;;;;;;5075643;28;20048;-73
2022/04/14 07:33:05;;;;;;;29.17;20.77;;;12.50;99.90;;;;;;5075442;28;20131;-74
2022/04/14 07:35:32;;;;;;;28.83;20.73;;;12.60;99.90;;;;;;5076039;28;20055;-74
2022/04/14 07:37:58;;;;;;;26.45;20.10;;;12.70;99.90;;;;;;5075493;28;20123;-73
2022/04/14 07:40:24;;;;;;;27.08;20.15;;;12.80;99.90;;;;;;5075789;28;20094;-74
2022/04/14 07:42:50;;;;;;;32.83;21.15;;;12.90;99.90;;;;;;5075533;28;20028;-74
2022/04/14 07:45:17;;;;;;;28.00;20.48;;;13.00;99.90;;;;;;5075286;28;20047;-74
2022/04/14 07:47:44;;;;;;;25.83;18.77;;;13.10;99.90;;;;;;5076490;28;20079;-75
2022/04/14 07:50:11;;;;;;;25.63;19.55;;;13.20;99.90;;;;;;5075593;28;20050;-74
2022/04/14 07:52:50;;;;;;;24.92;19.95;;;13.20;99.90;;;;;;5075392;28;20087;-74
2022/04/14 07:55:22;;;;;;;24.92;18.63;;;13.30;99.90;;;;;;5075329;28;20040;-74
2022/04/14 07:57:49;;;;;;;30.25;20.95;;;13.40;99.90;;;;;;5075216;28;20086;-74
2022/04/14 08:00:15;;;;;;;23.85;18.88;;;13.60;99.90;;;;;;5075422;28;20122;-74
2022/04/14 08:02:49;;;;;;;22.45;17.45;;;13.70;99.90;;;;;;5058534;28;20043;-74
2022/04/14 08:05:14;;;;;;;22.30;17.45;;;13.80;99.90;;;;;;5075421;28;20067;-74
2022/04/14 08:07:40;;;;;;;22.92;16.67;;;14.00;99.90;;;;;;5075106;28;20461;-75
2022/04/14 08:10:06;;;;;;;21.42;16.27;;;14.10;99.90;;;;;;5058589;28;20496;-75
2022/04/14 08:12:31;;;;;;;19.17;15.23;;;14.20;99.90;;;;;;5075332;28;20491;-74
2022/04/14 08:14:57;;;;;;;18.48;15.18;;;14.30;99.90;;;;;;5058393;28;20131;-75
2022/04/14 08:17:22;;;;;;;19.92;15.45;;;14.40;99.90;;;;;;5075025;28;20036;-75
2022/04/14 08:19:48;;;;;;;15.43;12.93;;;14.50;99.90;;;;;;5058479;28;20047;-74
2022/04/14 08:22:14;;;;;;;15.90;13.75;;;14.70;99.90;;;;;;5075016;28;20043;-74
2022/04/14 08:24:39;;;;;;;17.52;14.15;;;14.80;99.90;;;;;;5075264;28;20126;-75
2022/04/14 08:27:05;;;;;;;17.90;14.15;;;14.90;99.90;;;;;;5058334;28;20511;-75
2022/04/14 08:29:30;;;;;;;16.45;13.60;;;15.10;99.90;;;;;;5074839;28;20036;-74
2022/04/14 08:31:57;;;;;;;17.92;13.80;;;15.20;99.90;;;;;;5074932;28;20087;-74
2022/04/14 08:34:23;;;;;;;15.15;13.45;;;15.30;99.90;;;;;;5075984;28;20047;-74
2022/04/14 08:36:52;;;;;;;15.07;12.13;;;15.40;99.90;;;;;;5075415;28;20399;-75
2022/04/14 08:39:18;;;;;;;14.63;12.05;;;15.50;99.90;;;;;;5079220;28;20043;-74
2022/04/14 08:41:49;;;;;;;17.38;13.02;;;15.60;99.90;;;;;;5079313;28;20036;-75
2022/04/14 08:44:21;;;;;;;15.35;12.40;;;15.70;99.90;;;;;;5079006;28;20044;-75
2022/04/14 08:46:48;;;;;;;15.35;12.35;;;15.80;99.90;;;;;;5079131;28;20411;-74
2022/04/14 08:49:16;;;;;;;15.95;11.93;;;16.00;99.90;;;;;;5078858;28;20131;-74
2022/04/14 08:51:42;;;;;;;14.63;12.23;;;16.10;99.90;;;;;;5078759;28;20036;-75
2022/04/14 08:54:13;;;;;;;18.98;12.60;;;16.20;99.90;;;;;;5078656;28;20040;-75
2022/04/14 08:56:41;;;;;;;15.10;11.80;;;16.40;99.90;;;;;;5078628;28;20048;-75
2022/04/14 08:59:10;;;;;;;16.48;12.68;;;16.60;99.90;;;;;;5078450;28;20450;-74
2022/04/14 09:01:37;;;;;;;14.85;12.15;;;16.70;99.90;;;;;;5078651;28;20036;-75
2022/04/14 09:04:05;;;;;;;15.07;12.23;;;16.80;99.90;;;;;;5078499;28;20040;-75
2022/04/14 09:06:32;;;;;;;14.32;12.77;;;17.00;99.90;;;;;;5078437;28;20051;-75
2022/04/14 09:09:04;;;;;;;14.60;12.43;;;17.10;99.90;;;;;;5062184;28;20496;-75
2022/04/14 09:11:30;;;;;;;17.23;13.50;;;17.20;99.90;;;;;;5078662;28;20086;-75
2022/04/14 09:13:59;;;;;;;15.88;13.23;;;17.20;99.90;;;;;;5078207;28;20051;-75
2022/04/14 09:16:26;;;;;;;14.15;12.10;;;17.50;99.90;;;;;;5078417;28;20446;-75
2022/04/14 09:18:53;;;;;;;15.90;12.60;;;17.50;99.90;;;;;;5078708;28;20040;-74
2022/04/14 09:21:19;;;;;;;14.88;12.65;;;17.60;99.90;;;;;;5078584;28;20070;-75
2022/04/14 09:23:54;;;;;;;13.57;12.15;;;17.70;99.90;;;;;;5078469;28;20079;-75
2022/04/14 09:26:23;;;;;;;14.43;12.38;;;17.80;99.90;;;;;;5062182;28;20048;-74
2022/04/14 09:29:20;;;;;;;15.07;12.50;;;17.80;99.90;;;;;;5078499;28;20058;-74
2022/04/14 09:31:48;;;;;;;13.73;12.13;;;18.00;99.90;;;;;;4998354;28;20127;-75
2022/04/14 09:34:18;;;;;;;18.42;11.60;;;18.10;99.90;;;;;;4998305;28;20042;-75
2022/04/14 09:37:04;;;;;;;14.82;11.90;;;18.40;99.90;;;;;;4981881;28;20422;-74
2022/04/14 09:39:48;;;;;;;16.35;12.38;;;18.30;98.20;;;;;;4998193;28;20042;-74
2022/04/14 09:42:13;;;;;;;14.15;11.60;;;18.40;99.90;;;;;;4998059;28;20049;-75
2022/04/14 09:44:39;;;;;;;13.52;11.73;;;18.70;99.90;;;;;;5013976;28;20038;-75
2022/04/14 09:47:05;;;;;;;12.60;11.00;;;18.90;99.90;;;;;;5014211;28;20042;-74
2022/04/14 09:49:30;;;;;;;13.20;11.18;;;19.00;97.80;;;;;;4996404;28;20156;-75
2022/04/14 09:51:56;;;;;;;12.40;11.07;;;18.90;95.60;;;;;;5013813;28;20128;-75
2022/04/14 09:54:28;;;;;;;13.02;9.93;;;18.80;96.80;;;;;;4997862;28;20148;-75
2022/04/14 09:56:55;;;;;;;10.43;9.02;;;18.90;91.80;;;;;;4997307;28;20506;-74
2022/04/14 09:59:28;;;;;;;9.70;7.60;;;18.90;96.10;;;;;;4981544;28;20033;-76
2022/04/14 10:02:13;;;;;;;;;;;18.80;96.10;;;;;;4981611;28;20042;-76
2022/04/14 10:04:43;;;;;;;10.63;7.30;;;18.70;90.00;;;;;;4997178;28;19917;-76
2022/04/14 10:07:13;;;;;;;8.50;6.30;;;18.70;95.00;;;;;;5005751;28;20041;-76
2022/04/14 10:09:41;;;;;;;8.65;6.68;;;18.70;92.80;;;;;;5077280;28;20052;-75
2022/04/14 10:12:29;;;;;;;8.95;7.75;;;18.70;94.00;;;;;;5077402;28;20071;-76
2022/04/14 10:15:02;;;;;;;9.75;6.20;;;18.80;91.00;;;;;;5077421;28;20047;-76
2022/04/14 10:17:30;;;;;;;10.90;7.07;;;18.60;90.50;;;;;;5077493;28;20102;-75
2022/04/14 10:19:56;;;;;;;8.40;6.63;;;18.50;93.40;;;;;;5077167;28;20075;-75
2022/04/14 10:22:23;;;;;;;10.88;7.80;;;18.60;95.20;;;;;;5060663;28;20078;-77
2022/04/14 10:24:55;;;;;;;10.63;6.80;;;18.80;92.90;;;;;;5077121;28;20036;-76
2022/04/14 10:27:24;;;;;;;8.63;6.10;;;19.10;91.20;;;;;;5077125;28;20404;-77
2022/04/14 10:29:50;;;;;;;11.30;6.95;;;19.40;92.20;;;;;;5060670;28;20040;-76
2022/04/14 10:32:17;;;;;;;9.70;7.07;;;19.70;90.70;;;;;;5077436;28;20039;-76
2022/04/14 10:34:44;;;;;;;10.70;7.90;;;19.90;89.30;;;;;;5077601;28;20039;-76
2022/04/14 10:37:20;;;;;;;11.15;8.60;;;19.80;90.10;;;;;;5060462;28;20051;-76
2022/04/14 10:39:48;;;;;;;9.82;7.70;;;19.40;86.70;;;;;;5076783;28;20085;-77
2022/04/14 10:42:19;;;;;;;12.85;8.20;;;19.00;91.50;;;;;;5076932;28;20047;-77
2022/04/14 10:44:48;;;;;;;11.20;7.07;;;18.60;92.80;;;;;;5077200;28;20119;-76
2022/04/14 10:47:32;;;;;;;9.68;6.63;;;18.40;95.20;;;;;;5076591;28;20031;-78
2022/04/14 10:49:58;;;;;;;8.32;6.22;;;18.50;95.40;;;;;;5077273;28;20048;-76
2022/04/14 10:52:26;;;;;;;11.10;6.07;;;18.80;94.30;;;;;;5077017;28;20047;-76
2022/04/14 10:54:58;;;;;;;9.13;5.40;;;19.10;93.50;;;;;;5076526;28;20500;-76
2022/04/14 10:57:41;;;;;;;8.45;4.10;;;19.40;90.60;;;;;;5060076;28;20075;-76
2022/04/14 11:00:19;;;;;;;6.15;4.15;;;19.50;75.00;;;;;;5076457;28;20036;-76
2022/04/14 11:03:07;;;;;;;6.97;3.45;;;19.50;75.70;;;;;;5076395;28;20052;-77
2022/04/14 11:05:40;;;;;;;5.97;2.80;;;19.50;73.40;;;;;;5076290;28;20031;-77
2022/04/14 11:08:26;;;;;;;5.65;3.17;;;19.60;75.40;;;;;;5076226;28;20071;-75
2022/04/14 11:10:54;;;;;;;4.97;2.53;;;19.90;69.20;;;;;;5075944;28;20051;-77
2022/04/14 11:13:20;;;;;;;4.65;2.20;;;20.20;71.00;;;;;;5076303;28;20036;-77
2022/04/14 11:15:48;;;;;;;5.35;2.70;;;20.40;68.90;;;;;;5078428;28;20561;-77
2022/04/14 11:18:17;;;;;;;6.43;2.93;;;20.50;68.50;;;;;;5093286;28;20024;-78
2022/04/14 11:20:53;;;;;;;6.78;3.17;;;20.50;68.60;;;;;;5076181;28;20311;-79
2022/04/14 11:23:36;;;;;;;4.90;2.47;;;20.60;68.00;;;;;;5074315;28;20040;-76
2022/04/14 11:26:09;;;;;;;5.60;2.83;;;20.50;66.20;;;;;;5075830;28;20040;-76
2022/04/14 11:28:36;;;;;;;6.38;3.22;;;20.30;65.30;;;;;;5072839;28;20032;-75
2022/04/14 11:31:13;;;;;;;10.85;3.85;;;20.30;66.30;;;;;;5085338;28;20036;-76
2022/04/14 11:33:43;;;;;;;6.50;3.10;;;20.40;65.80;;;;;;5084672;28;20093;-75
2022/04/14 11:36:16;;;;;;;6.28;2.70;;;20.50;63.90;;;;;;5096556;28;20088;-74
2022/04/14 11:38:55;;;;;;;5.28;2.90;;;20.50;61.90;;;;;;5075675;28;20079;-73
2022/04/14 11:41:43;;;;;;;7.05;3.80;;;20.60;62.30;;;;;;5075550;28;20519;-75
2022/04/14 11:44:21;;;;;;;7.40;4.13;;;20.80;63.90;;;;;;5059078;28;20036;-75
2022/04/14 11:46:47;;;;;;;7.20;4.13;;;21.00;63.90;;;;;;5075524;28;20043;-75
2022/04/14 11:49:19;;;;;;;5.78;3.65;;;21.30;65.20;;;;;;5075492;28;20044;-74
2022/04/14 11:51:49;;;;;;;10.87;3.67;;;21.50;63.30;;;;;;5075807;28;20469;-75
2022/04/14 11:54:33;;;;;;;7.85;3.03;;;21.60;63.40;;;;;;5075689;28;20402;-74
2022/04/14 11:57:00;;;;;;;4.60;2.00;;;21.70;60.80;;;;;;5075304;28;20044;-75
2022/04/14 11:59:40;;;;;;;4.30;1.40;;;21.70;60.60;;;;;;5075356;28;20386;-74
2022/04/14 12:02:07;;;;;;;6.20;2.00;;;21.80;60.50;;;;;;5075439;28;20040;-74
2022/04/14 12:04:35;;;;;;;6.55;2.30;;;21.70;59.50;;;;;;5075408;28;20093;-74
2022/04/14 12:07:00;;;;;;;7.32;3.13;;;21.60;60.40;;;;;;5075335;28;20036;-74
2022/04/14 12:09:26;;;;;;;6.38;2.53;;;21.60;60.30;;;;;;5075570;28;20126;-74
2022/04/14 12:11:52;;;;;;;7.07;2.90;;;21.60;61.30;;;;;;5074897;28;20036;-74
2022/04/14 12:14:19;;;;;;;7.07;2.75;;;21.60;61.30;;;;;;5075374;28;20047;-74
2022/04/14 12:16:48;;;;;;;5.55;2.72;;;21.80;62.60;;;;;;5075098;28;20408;-74
2022/04/14 12:19:13;;;;;;;6.40;2.78;;;21.80;59.20;;;;;;5075198;28;20075;-74
2022/04/14 12:21:39;;;;;;;5.32;2.40;;;21.70;59.60;;;;;;5075181;28;20080;-74
2022/04/14 12:24:05;;;;;;;5.68;2.72;;;21.70;59.30;;;;;;5075330;28;20032;-74
2022/04/14 12:26:35;;;;;;;6.32;2.78;;;21.80;60.00;;;;;;5075137;28;20465;-74
2022/04/14 12:29:01;;;;;;;5.80;3.17;;;21.80;59.60;;;;;;5058520;28;20036;-74
2022/04/14 12:31:28;;;;;;;6.80;2.55;;;21.80;60.70;;;;;;5075042;28;20055;-74
2022/04/14 12:34:00;;;;;;;9.00;2.97;;;22.00;59.50;;;;;;5075103;28;20047;-76